Time;durP1;ratioP1;P1;durP2;ratioP2;P2;SDS_P1;SDS_P2;PMS_P1;PMS_P2;Temp;Humidity;BMP_temperature;BMP_pressure;BME280_temperature;BME280_humidity;BME280_pressure;Samples;Min_cycle;Max_cycle;Signal;HPM_P1;HPM_P2
2022/04/08 00:02:07;;;;;;;4.80;2.87;;;;;;;14.28;53.29;98021.38;4479137;31;34638;-81
2022/04/08 00:04:35;;;;;;;5.20;3.12;;;;;;;14.13;53.82;98030.66;4491154;31;34123;-81
2022/04/08 00:07:03;;;;;;;3.90;2.78;;;;;;;14.06;54.11;98039.16;4490956;31;33897;-81
2022/04/08 00:09:31;;;;;;;5.00;3.05;;;;;;;14.14;53.70;98035.84;4487874;31;34935;-81
2022/04/08 00:12:03;;;;;;;5.97;3.12;;;;;;;14.14;53.55;98046.44;4490099;31;33407;-81
2022/04/08 00:14:32;;;;;;;3.42;2.83;;;;;;;14.05;54.09;98037.50;4487297;31;32954;-81
2022/04/08 00:17:01;;;;;;;4.93;2.75;;;;;;;14.14;53.53;98045.62;4488892;31;35223;-81
2022/04/08 00:19:29;;;;;;;5.50;2.80;;;;;;;13.92;53.77;98042.16;4490189;31;34240;-81
2022/04/08 00:21:57;;;;;;;6.85;3.12;;;;;;;13.91;53.76;98039.63;4478787;31;34231;-81
2022/04/08 00:24:24;;;;;;;4.90;3.28;;;;;;;13.95;53.53;98038.38;4489999;31;32307;-80
2022/04/08 00:26:52;;;;;;;8.70;3.67;;;;;;;13.69;54.25;98025.53;4476769;31;33362;-81
2022/04/08 00:29:20;;;;;;;4.20;3.33;;;;;;;13.33;55.61;98040.06;4489851;31;33581;-81
2022/04/08 00:31:47;;;;;;;7.72;2.87;;;;;;;13.58;54.66;98020.31;4494506;31;34069;-81
2022/04/08 00:34:16;;;;;;;7.50;4.50;;;;;;;13.22;55.77;98038.31;4481675;31;33064;-83
2022/04/08 00:36:44;;;;;;;4.72;3.55;;;;;;;13.47;55.06;98041.56;4491816;31;34823;-82
2022/04/08 00:39:13;;;;;;;9.88;3.70;;;;;;;13.64;54.53;98048.13;4490121;31;33888;-81
2022/04/08 00:41:40;;;;;;;4.68;2.00;;;;;;;13.53;55.00;98044.56;4492173;31;33882;-81
2022/04/08 00:44:10;;;;;;;4.82;3.25;;;;;;;13.78;54.33;98045.16;4492471;31;33076;-81
2022/04/08 00:46:38;;;;;;;7.03;3.08;;;;;;;13.40;55.15;98038.59;4492044;31;34193;-81
2022/04/08 00:49:06;;;;;;;5.20;2.35;;;;;;;12.97;56.78;98028.00;4491106;31;32346;-81
2022/04/08 00:51:34;;;;;;;6.10;3.33;;;;;;;13.10;56.50;98038.44;4492697;31;33782;-81
2022/04/08 00:54:03;;;;;;;6.10;3.70;;;;;;;13.00;56.94;98057.72;4493883;31;34179;-81
2022/04/08 00:56:31;;;;;;;6.85;3.10;;;;;;;13.35;55.86;98061.16;4485430;31;33364;-81
2022/04/08 00:58:59;;;;;;;5.47;3.25;;;;;;;13.09;56.90;98058.78;4491760;31;33690;-81
2022/04/08 01:01:26;;;;;;;5.97;3.17;;;;;;;12.92;57.51;98054.88;4480992;31;34266;-81
2022/04/08 01:03:54;;;;;;;6.25;3.37;;;;;;;13.35;56.25;98045.25;4489634;31;33735;-81
2022/04/08 01:06:22;;;;;;;4.93;3.55;;;;;;;13.19;56.55;98049.13;4479409;31;33609;-80
2022/04/08 01:08:51;;;;;;;5.05;3.30;;;;;;;13.05;57.01;98054.69;4491543;31;33397;-81
2022/04/08 01:11:19;;;;;;;4.43;3.00;;;;;;;13.01;57.03;98055.94;4494724;31;34162;-80
2022/04/08 01:13:47;;;;;;;5.28;3.15;;;;;;;12.96;57.06;98066.03;4476558;31;32487;-80
2022/04/08 01:16:14;;;;;;;4.70;3.05;;;;;;;12.94;57.26;98066.19;4477560;31;33294;-81
2022/04/08 01:18:42;;;;;;;7.45;3.97;;;;;;;13.06;56.80;98072.31;4478945;31;33613;-81
2022/04/08 01:21:10;;;;;;;7.97;3.40;;;;;;;13.02;56.61;98077.00;4489920;31;33500;-81
2022/04/08 01:23:39;;;;;;;6.93;4.22;;;;;;;12.82;56.95;98072.50;4480015;31;32626;-81
2022/04/08 01:26:07;;;;;;;40.63;19.20;;;;;;;12.91;56.73;98081.47;4491812;31;33806;-81
2022/04/08 01:28:35;;;;;;;43.45;20.58;;;;;;;12.65;57.95;98071.16;4476407;31;33911;-81
2022/04/08 01:31:02;;;;;;;11.52;5.85;;;;;;;12.83;57.58;98084.75;4491809;31;33993;-80
2022/04/08 01:33:30;;;;;;;8.98;5.15;;;;;;;13.15;56.36;98091.88;4479815;31;32678;-80
2022/04/08 01:35:58;;;;;;;13.00;5.25;;;;;;;13.06;56.67;98101.44;4490231;31;33860;-81
2022/04/08 01:38:25;;;;;;;8.63;5.07;;;;;;;12.62;58.04;98107.62;4492895;31;34772;-81
2022/04/08 01:40:53;;;;;;;11.38;5.37;;;;;;;12.62;58.12;98134.13;4491358;31;33825;-81
2022/04/08 01:43:21;;;;;;;10.98;5.82;;;;;;;12.67;58.08;98139.88;4466224;31;32317;-80
2022/04/08 01:45:48;;;;;;;6.90;4.03;;;;;;;12.60;58.80;98131.59;4493112;31;33810;-81
2022/04/08 01:48:17;;;;;;;5.57;3.90;;;;;;;13.11;57.01;98140.84;4491149;31;35796;-81
2022/04/08 01:50:44;;;;;;;8.25;3.37;;;;;;;12.61;58.54;98153.62;4492583;31;33494;-81
2022/04/08 01:53:13;;;;;;;6.00;3.87;;;;;;;12.51;59.32;98154.34;4491254;31;33723;-81
2022/04/08 01:55:42;;;;;;;6.40;2.90;;;;;;;12.83;57.98;98164.22;4479992;31;34247;-81
2022/04/08 01:58:10;;;;;;;5.18;3.22;;;;;;;12.52;59.05;98153.38;4480769;31;33226;-81
2022/04/08 02:00:38;;;;;;;6.55;3.60;;;;;;;12.52;59.14;98150.72;4478708;31;33335;-81
2022/04/08 02:03:06;;;;;;;11.40;3.55;;;;;;;12.47;59.45;98147.59;4491637;31;32991;-81
2022/04/08 02:05:34;;;;;;;6.30;3.03;;;;;;;13.06;57.57;98143.84;4478150;31;33673;-81
2022/04/08 02:08:02;;;;;;;8.88;3.67;;;;;;;12.91;57.83;98145.03;4489641;31;33921;-81
2022/04/08 02:10:29;;;;;;;5.28;3.30;;;;;;;12.56;58.92;98167.22;4492726;31;33102;-81
2022/04/08 02:12:57;;;;;;;4.60;2.85;;;;;;;12.61;59.02;98188.88;4491077;31;33461;-81
2022/04/08 02:15:28;;;;;;;5.25;3.35;;;;;;;12.60;59.03;98204.91;4479503;31;34530;-81
2022/04/08 02:17:56;;;;;;;4.93;2.40;;;;;;;12.48;59.22;98196.91;4491770;31;34007;-81
2022/04/08 02:20:25;;;;;;;2.45;1.90;;;;;;;12.51;59.06;98198.50;4496422;31;33605;-81
2022/04/08 02:22:52;;;;;;;5.93;3.78;;;;;;;12.56;58.92;98193.69;4493779;31;34040;-81
2022/04/08 02:25:20;;;;;;;3.08;2.35;;;;;;;12.35;59.36;98193.53;4491757;31;34682;-81
2022/04/08 02:27:48;;;;;;;5.07;3.08;;;;;;;12.47;58.92;98189.94;4492223;31;33344;-81
2022/04/08 02:30:16;;;;;;;8.27;4.28;;;;;;;12.34;59.77;98181.25;4490103;31;33734;-82
2022/04/08 02:32:43;;;;;;;8.52;4.47;;;;;;;12.49;59.32;98163.38;4492117;31;33339;-81
2022/04/08 02:35:11;;;;;;;6.45;4.68;;;;;;;12.43;59.44;98162.00;4494762;31;33575;-81
2022/04/08 02:37:39;;;;;;;7.60;4.30;;;;;;;12.60;58.96;98178.41;4491316;31;34014;-80
2022/04/08 02:40:07;;;;;;;6.62;4.68;;;;;;;12.66;58.67;98181.41;4490358;31;32603;-80
2022/04/08 02:42:35;;;;;;;9.35;4.32;;;;;;;12.55;58.97;98192.00;4478057;31;32064;-81
2022/04/08 02:45:02;;;;;;;8.65;4.75;;;;;;;12.56;58.92;98194.53;4479749;31;32322;-81
2022/04/08 02:47:30;;;;;;;7.40;4.30;;;;;;;12.56;58.82;98201.63;4490254;31;33694;-81
2022/04/08 02:49:57;;;;;;;7.37;3.87;;;;;;;12.54;58.67;98200.91;4479493;31;33719;-81
2022/04/08 02:52:25;;;;;;;8.75;3.78;;;;;;;12.59;58.36;98211.16;4480361;31;33859;-80
2022/04/08 02:54:52;;;;;;;5.57;2.83;;;;;;;12.40;58.63;98222.31;4466324;31;32497;-81
2022/04/08 02:57:20;;;;;;;7.18;3.87;;;;;;;12.14;59.32;98224.28;4491247;31;33912;-81
2022/04/08 02:59:50;;;;;;;4.28;3.30;;;;;;;12.30;58.88;98235.41;4491715;31;34617;-81
2022/04/08 03:02:17;;;;;;;6.15;3.15;;;;;;;12.18;59.33;98246.91;4492779;31;32976;-80
2022/04/08 03:04:45;;;;;;;7.22;3.22;;;;;;;12.23;59.57;98265.91;4477781;31;33684;-81
2022/04/08 03:07:13;;;;;;;9.25;2.92;;;;;;;12.30;59.58;98256.56;4491284;31;34512;-80
2022/04/08 03:09:41;;;;;;;5.12;3.42;;;;;;;12.27;59.62;98262.09;4489078;31;33806;-80
2022/04/08 03:12:09;;;;;;;6.18;3.45;;;;;;;12.46;58.99;98262.38;4464369;31;34281;-81
2022/04/08 03:14:36;;;;;;;6.03;3.17;;;;;;;12.63;58.56;98269.06;4479481;31;33470;-81
2022/04/08 03:17:04;;;;;;;6.70;3.10;;;;;;;12.31;59.50;98271.50;4491190;31;34040;-81
2022/04/08 03:19:32;;;;;;;4.68;3.17;;;;;;;12.38;59.35;98258.63;4481414;31;33215;-81
2022/04/08 03:21:59;;;;;;;6.45;3.50;;;;;;;12.91;57.99;98262.44;4493131;31;32997;-81
2022/04/08 03:24:27;;;;;;;4.03;3.20;;;;;;;12.49;59.13;98270.09;4492923;31;33438;-81
2022/04/08 03:26:56;;;;;;;6.28;3.70;;;;;;;12.69;58.59;98278.34;4491770;31;33828;-81
2022/04/08 03:29:23;;;;;;;7.30;3.35;;;;;;;12.55;58.95;98284.69;4492592;31;32862;-81
2022/04/08 03:31:50;;;;;;;5.43;2.78;;;;;;;12.52;59.05;98283.09;4491138;31;33076;-81
2022/04/08 03:34:19;;;;;;;10.90;2.65;;;;;;;12.56;57.65;98284.56;4489487;31;33873;-81
2022/04/08 03:36:47;;;;;;;4.55;1.95;;;;;;;12.55;57.76;98293.47;4490785;31;32340;-80
2022/04/08 03:39:14;;;;;;;2.17;1.45;;;;;;;12.82;56.90;98294.97;4490532;31;34703;-80
2022/04/08 03:41:42;;;;;;;7.47;1.40;;;;;;;12.84;57.13;98313.38;4490350;31;33237;-80
2022/04/08 03:44:10;;;;;;;3.28;1.10;;;;;;;13.15;56.14;98309.19;4490817;31;33873;-80
2022/04/08 03:46:37;;;;;;;1.42;0.95;;;;;;;13.12;56.81;98306.81;4489447;31;32862;-81
2022/04/08 03:49:11;;;;;;;4.62;0.90;;;;;;;13.43;55.96;98322.00;4490179;31;34516;-81
2022/04/08 03:51:38;;;;;;;1.75;1.30;;;;;;;13.54;55.81;98332.63;4489644;31;34059;-82
2022/04/08 03:54:07;;;;;;;2.22;1.33;;;;;;;13.67;55.69;98342.25;4489568;31;33935;-81
2022/04/08 03:56:35;;;;;;;2.53;1.17;;;;;;;13.59;56.24;98342.88;4478438;31;33386;-81
2022/04/08 03:59:03;;;;;;;1.05;0.85;;;;;;;13.69;56.06;98350.94;4477464;31;33219;-81
2022/04/08 04:01:32;;;;;;;0.70;0.43;;;;;;;13.73;56.46;98355.03;4490423;31;33004;-82
2022/04/08 04:04:00;;;;;;;0.57;0.30;;;;;;;13.53;57.51;98352.16;4478374;31;32252;-81
2022/04/08 04:06:27;;;;;;;0.43;0.17;;;;;;;13.95;56.36;98333.75;4481867;31;33111;-83
2022/04/08 04:08:55;;;;;;;2.30;0.50;;;;;;;13.63;57.59;98348.78;4466731;31;33176;-83
2022/04/08 04:11:23;;;;;;;0.85;0.40;;;;;;;13.62;57.90;98352.38;4464935;31;33207;-81
2022/04/08 04:13:51;;;;;;;0.43;0.13;;;;;;;13.50;58.59;98339.13;4489915;31;33251;-82
2022/04/08 04:16:18;;;;;;;3.42;0.20;;;;;;;13.55;58.79;98358.19;4491124;31;33570;-82
2022/04/08 04:18:46;;;;;;;0.45;0.20;;;;;;;13.87;57.62;98346.81;4478467;31;33896;-82
2022/04/08 04:21:15;;;;;;;1.65;0.10;;;;;;;14.03;56.66;98347.25;4479832;31;33472;-81
2022/04/08 04:23:42;;;;;;;0.32;0.20;;;;;;;13.48;57.90;98361.41;4489608;31;34558;-82
2022/04/08 04:26:10;;;;;;;0.85;0.20;;;;;;;13.90;55.75;98354.53;4479177;31;33591;-82
2022/04/08 04:28:38;;;;;;;0.20;0.20;;;;;;;13.93;55.62;98364.91;4492137;31;34066;-81
2022/04/08 04:31:06;;;;;;;0.68;0.20;;;;;;;13.89;55.59;98360.81;4481081;31;32946;-83
2022/04/08 04:33:34;;;;;;;0.10;0.10;;;;;;;14.06;54.54;98362.13;4491738;31;34309;-82
2022/04/08 04:36:01;;;;;;;0.70;0.20;;;;;;;14.15;53.70;98366.69;4477967;31;33582;-82
2022/04/08 04:38:29;;;;;;;0.60;0.20;;;;;;;14.03;53.45;98373.81;4491061;31;34599;-81
2022/04/08 04:40:57;;;;;;;0.43;0.20;;;;;;;14.09;51.54;98373.31;4492593;31;33348;-82
2022/04/08 04:43:24;;;;;;;0.77;0.20;;;;;;;13.95;52.62;98372.72;4479118;31;33764;-81
2022/04/08 04:45:52;;;;;;;1.77;0.10;;;;;;;13.85;52.97;98375.28;4476833;31;33829;-81
2022/04/08 04:48:22;;;;;;;1.45;0.30;;;;;;;14.30;50.38;98364.59;4477452;31;35672;-81
2022/04/08 04:50:49;;;;;;;0.75;0.20;;;;;;;14.13;50.48;98386.34;4479455;31;33228;-81
2022/04/08 04:53:17;;;;;;;0.70;0.30;;;;;;;13.93;49.75;98396.75;4493906;31;34109;-82
2022/04/08 04:55:45;;;;;;;2.83;0.70;;;;;;;14.09;47.54;98407.81;4477533;31;33337;-81
2022/04/08 04:58:12;;;;;;;2.97;0.20;;;;;;;13.98;46.54;98418.44;4491525;31;33516;-81
2022/04/08 05:00:40;;;;;;;0.85;0.20;;;;;;;14.12;45.15;98419.16;4491269;31;33525;-82
2022/04/08 05:03:08;;;;;;;0.77;0.20;;;;;;;14.33;44.74;98433.34;4490412;31;33500;-81
2022/04/08 05:05:36;;;;;;;0.47;0.10;;;;;;;14.34;43.92;98419.97;4493170;31;34896;-82
2022/04/08 05:08:04;;;;;;;0.28;0.20;;;;;;;14.42;44.07;98423.78;4492707;31;34199;-81
2022/04/08 05:10:32;;;;;;;2.53;0.88;;;;;;;14.18;44.74;98427.47;4493656;31;33413;-82
2022/04/08 05:13:00;;;;;;;0.93;0.17;;;;;;;14.17;44.59;98427.59;4490404;31;34571;-82
2022/04/08 05:15:29;;;;;;;2.30;0.30;;;;;;;14.34;43.24;98419.12;4479064;31;33826;-82
2022/04/08 05:17:58;;;;;;;1.65;0.35;;;;;;;14.15;44.06;98421.53;4488713;31;33587;-82
2022/04/08 05:20:25;;;;;;;0.60;0.13;;;;;;;13.82;44.42;98434.75;4479321;31;32865;-82
2022/04/08 05:22:53;;;;;;;1.67;0.20;;;;;;;14.07;43.69;98438.94;4491717;31;34658;-82
2022/04/08 05:25:21;;;;;;;3.17;0.40;;;;;;;14.00;43.28;98437.72;4492671;31;33114;-82
2022/04/08 05:27:51;;;;;;;0.70;0.30;;;;;;;14.23;42.26;98449.19;4477324;31;34175;-82
2022/04/08 05:30:19;;;;;;;2.50;0.30;;;;;;;14.49;40.97;98439.16;4486989;31;34009;-82
2022/04/08 05:32:47;;;;;;;0.55;0.20;;;;;;;14.38;41.32;98446.25;4491461;31;34641;-82
2022/04/08 05:35:16;;;;;;;2.25;0.30;;;;;;;14.33;39.94;98451.94;4491324;31;34496;-82
2022/04/08 05:37:48;;;;;;;4.12;0.47;;;;;;;14.18;40.67;98461.97;4493236;31;34593;-82
2022/04/08 05:40:18;;;;;;;1.05;0.28;;;;;;;14.28;40.14;98462.09;4477499;31;33050;-82
2022/04/08 05:42:46;;;;;;;1.92;0.40;;;;;;;14.48;39.19;98474.66;4489086;31;33786;-81
2022/04/08 05:45:20;;;;;;;0.77;0.28;;;;;;;14.52;40.05;98476.06;4477289;31;33033;-82
2022/04/08 05:47:54;;;;;;;2.87;0.30;;;;;;;14.35;42.58;98479.22;4467248;31;34764;-82
2022/04/08 05:50:22;;;;;;;4.18;0.50;;;;;;;13.97;44.99;98476.97;4491546;31;33431;-82
2022/04/08 05:52:52;;;;;;;1.20;0.52;;;;;;;14.22;43.99;98478.50;4489693;31;33395;-82
2022/04/08 05:55:19;;;;;;;6.43;0.70;;;;;;;14.13;43.69;98495.16;4490158;31;33975;-82
2022/04/08 05:57:47;;;;;;;3.05;0.50;;;;;;;14.05;43.59;98493.09;4491323;31;33661;-82
2022/04/08 06:00:17;;;;;;;4.47;0.95;;;;;;;13.95;42.66;98500.09;4465479;31;31830;-81
2022/04/08 06:02:45;;;;;;;1.50;0.47;;;;;;;14.11;41.33;98500.59;4489164;31;33492;-82
2022/04/08 06:05:20;;;;;;;1.25;0.32;;;;;;;13.90;41.85;98516.38;4479445;31;33029;-81
2022/04/08 06:07:56;;;;;;;1.65;0.20;;;;;;;13.93;40.76;98521.47;4480198;31;32818;-81
2022/04/08 06:10:24;;;;;;;3.78;0.43;;;;;;;13.87;41.29;98527.25;4472888;31;31959;-81
2022/04/08 06:12:53;;;;;;;2.83;0.60;;;;;;;13.80;40.64;98553.41;4492187;31;33451;-81
2022/04/08 06:15:21;;;;;;;1.02;0.37;;;;;;;13.97;37.73;98557.41;4477235;31;32982;-82
2022/04/08 06:17:49;;;;;;;2.03;0.60;;;;;;;14.00;38.57;98575.75;4491785;31;33476;-81
2022/04/08 06:20:18;;;;;;;1.55;0.25;;;;;;;14.03;37.26;98556.94;4478023;31;33230;-82
2022/04/08 06:22:47;;;;;;;1.65;0.50;;;;;;;14.13;37.80;98564.19;4490664;31;33494;-82
2022/04/08 06:25:18;;;;;;;1.62;0.40;;;;;;;14.52;37.49;98552.25;4478448;31;33262;-82
2022/04/08 06:27:55;;;;;;;1.37;0.20;;;;;;;14.21;38.49;98556.47;4491088;31;32587;-82
2022/04/08 06:30:24;;;;;;;2.05;0.40;;;;;;;14.29;38.73;98554.03;4477773;31;32607;-82
2022/04/08 06:32:51;;;;;;;2.50;0.70;;;;;;;14.27;38.28;98561.28;4491577;31;33575;-82
2022/04/08 06:35:19;;;;;;;2.50;0.60;;;;;;;14.34;37.15;98560.69;4491472;31;34024;-81
2022/04/08 06:37:47;;;;;;;2.47;0.62;;;;;;;14.56;37.25;98549.22;4478646;31;34229;-81
2022/04/08 06:40:15;;;;;;;1.50;0.47;;;;;;;14.68;36.85;98552.72;4479068;31;32694;-81
2022/04/08 06:42:42;;;;;;;0.80;0.32;;;;;;;15.01;35.45;98551.81;4476062;31;33489;-82
2022/04/08 06:45:10;;;;;;;2.00;0.75;;;;;;;14.92;36.50;98552.56;4489048;31;33446;-82
2022/04/08 06:47:46;;;;;;;1.40;0.35;;;;;;;15.25;36.18;98556.09;4478576;31;33579;-82
2022/04/08 06:50:14;;;;;;;2.58;0.40;;;;;;;15.31;35.56;98556.41;4489693;31;34356;-82
2022/04/08 06:52:42;;;;;;;3.20;0.50;;;;;;;15.30;36.10;98557.38;4491048;31;33599;-82
2022/04/08 06:55:10;;;;;;;2.55;0.57;;;;;;;15.54;34.86;98557.16;4489390;31;33523;-82
2022/04/08 06:57:38;;;;;;;3.75;0.43;;;;;;;15.74;34.85;98560.00;4490242;31;34741;-82
2022/04/08 07:00:09;;;;;;;1.05;0.40;;;;;;;15.74;34.09;98567.97;4477721;31;33934;-82
2022/04/08 07:02:37;;;;;;;0.82;0.30;;;;;;;15.89;33.65;98569.31;4476753;31;34020;-82
2022/04/08 07:05:05;;;;;;;2.72;0.55;;;;;;;15.36;34.33;98566.66;4489776;31;34476;-82
2022/04/08 07:07:35;;;;;;;2.78;0.37;;;;;;;15.69;33.00;98570.19;4476573;31;33881;-82
2022/04/08 07:10:07;;;;;;;6.53;0.77;;;;;;;15.67;34.05;98550.84;4489962;31;33537;-82
2022/04/08 07:12:34;;;;;;;;;;;;;;;15.96;33.96;98549.22;4479674;31;34383;-82
2022/04/08 07:15:03;;;;;;;2.53;0.22;;;;;;;15.72;33.76;98548.66;4476612;31;34175;-82
2022/04/08 07:17:32;;;;;;;1.37;0.35;;;;;;;15.65;34.04;98566.94;4492215;31;34211;-82
2022/04/08 07:20:14;;;;;;;3.53;0.40;;;;;;;15.91;33.53;98587.84;4489776;31;33353;-82
2022/04/08 07:22:44;;;;;;;8.00;0.73;;;;;;;16.09;32.73;98584.47;4488461;31;33494;-82
2022/04/08 07:25:12;;;;;;;2.45;1.12;;;;;;;16.37;33.46;98574.06;4490720;31;33243;-82
2022/04/08 07:27:50;;;;;;;2.90;0.60;;;;;;;16.27;33.79;98563.38;4479441;31;34798;-82
2022/04/08 07:30:19;;;;;;;2.03;0.57;;;;;;;16.53;32.69;98577.09;4488856;31;34090;-83
2022/04/08 07:32:52;;;;;;;1.58;0.40;;;;;;;16.82;33.71;98582.56;4477751;31;33333;-82
2022/04/08 07:35:25;;;;;;;2.65;0.77;;;;;;;16.86;33.04;98581.31;4489649;31;32795;-82
2022/04/08 07:37:54;;;;;;;2.70;1.35;;;;;;;16.56;31.55;98574.16;4487182;31;34121;-82
2022/04/08 07:40:21;;;;;;;7.68;0.70;;;;;;;16.47;32.38;98580.28;4478402;31;32532;-82
2022/04/08 07:42:49;;;;;;;1.30;0.40;;;;;;;16.31;31.57;98594.09;4464160;31;33572;-81
2022/04/08 07:45:17;;;;;;;3.50;0.40;;;;;;;16.77;30.97;98589.28;4474084;31;34955;-80
2022/04/08 07:47:45;;;;;;;3.03;0.52;;;;;;;16.40;32.64;98600.44;4478865;31;33991;-81
2022/04/08 07:50:14;;;;;;;4.07;0.62;;;;;;;16.60;33.16;98591.56;4478400;31;33109;-81
2022/04/08 07:52:42;;;;;;;1.30;0.40;;;;;;;16.43;31.91;98584.22;4487822;31;35070;-80
2022/04/08 07:55:11;;;;;;;3.62;0.62;;;;;;;16.79;30.99;98577.47;4489121;31;33562;-80
2022/04/08 07:57:46;;;;;;;11.77;1.10;;;;;;;16.61;29.31;98574.56;4475037;31;33876;-80
2022/04/08 08:00:16;;;;;;;14.52;0.68;;;;;;;16.46;28.86;98567.09;4487215;31;32854;-81
2022/04/08 08:02:44;;;;;;;0.88;0.30;;;;;;;16.04;30.67;98575.16;4475134;31;33722;-81
2022/04/08 08:05:12;;;;;;;0.80;0.40;;;;;;;16.06;29.76;98566.06;4476630;31;34238;-80
2022/04/08 08:07:47;;;;;;;1.40;0.50;;;;;;;15.98;29.81;98579.19;4476568;31;32388;-80
2022/04/08 08:10:20;;;;;;;2.55;0.43;;;;;;;15.80;30.75;98591.41;4486564;31;33485;-80
2022/04/08 08:12:48;;;;;;;2.58;0.22;;;;;;;16.10;30.06;98574.66;4478544;31;33094;-80
2022/04/08 08:15:16;;;;;;;2.45;0.37;;;;;;;16.20;28.97;98590.69;4476815;31;34441;-80
2022/04/08 08:17:45;;;;;;;1.42;0.28;;;;;;;16.12;29.42;98592.16;4488992;31;34837;-80
2022/04/08 08:20:14;;;;;;;3.30;0.52;;;;;;;15.59;29.04;98610.81;4490156;31;33180;-80
2022/04/08 08:22:43;;;;;;;3.08;0.30;;;;;;;15.80;29.84;98623.34;4486609;31;34524;-80
2022/04/08 08:25:11;;;;;;;4.30;0.47;;;;;;;15.97;28.87;98635.25;4474419;31;33236;-80
2022/04/08 08:27:48;;;;;;;1.10;0.17;;;;;;;15.90;29.30;98629.56;4475118;31;33597;-81
2022/04/08 08:30:16;;;;;;;1.12;0.25;;;;;;;16.07;30.48;98647.62;4488788;31;34137;-80
2022/04/08 08:32:48;;;;;;;4.15;2.15;;;;;;;16.28;28.87;98652.09;4476543;31;34221;-80
2022/04/08 08:35:17;;;;;;;2.50;0.47;;;;;;;16.18;28.86;98660.03;4485508;31;34119;-80
2022/04/08 08:37:47;;;;;;;7.65;0.88;;;;;;;16.38;29.07;98664.53;4487799;31;34944;-80
2022/04/08 08:40:16;;;;;;;1.23;0.28;;;;;;;16.06;29.93;98661.09;4475767;31;33444;-80
2022/04/08 08:42:44;;;;;;;2.60;0.37;;;;;;;16.19;29.54;98671.53;4487517;31;33566;-80
2022/04/08 08:45:13;;;;;;;2.58;0.77;;;;;;;16.27;29.27;98659.25;4488344;31;34882;-80
2022/04/08 08:47:49;;;;;;;1.98;0.30;;;;;;;16.23;29.35;98667.63;4474806;31;34098;-80
2022/04/08 08:50:17;;;;;;;2.08;0.52;;;;;;;16.18;29.13;98654.72;4476295;31;33304;-80
2022/04/08 08:52:53;;;;;;;1.05;0.62;;;;;;;16.63;29.40;98681.91;4478032;31;32849;-80
2022/04/08 08:55:21;;;;;;;1.95;0.20;;;;;;;16.56;28.70;98679.91;4478983;31;32799;-80
2022/04/08 08:57:49;;;;;;;7.60;0.57;;;;;;;16.35;28.72;98682.59;4479467;31;33398;-81
2022/04/08 09:00:19;;;;;;;1.37;0.43;;;;;;;16.46;29.02;98682.50;4477702;31;33183;-80
2022/04/08 09:02:48;;;;;;;0.95;0.32;;;;;;;16.59;28.48;98685.81;4489671;31;35157;-80
2022/04/08 09:05:28;;;;;;;2.58;0.60;;;;;;;16.60;29.18;98682.16;4490226;31;34248;-80
2022/04/08 09:08:00;;;;;;;0.47;0.25;;;;;;;16.61;28.52;98685.66;4479104;31;34118;-81
2022/04/08 09:10:36;;;;;;;3.42;0.20;;;;;;;16.78;28.13;98676.25;4477450;31;32551;-81
2022/04/08 09:13:05;;;;;;;0.85;0.30;;;;;;;17.31;28.43;98681.34;4492498;31;32728;-81
2022/04/08 09:15:36;;;;;;;3.90;0.73;;;;;;;17.34;27.32;98686.44;4492133;31;34768;-81
2022/04/08 09:18:14;;;;;;;1.23;0.30;;;;;;;17.54;27.45;98677.47;4489950;31;34115;-80
2022/04/08 09:20:48;;;;;;;2.00;0.73;;;;;;;17.78;26.22;98668.25;4478498;31;35433;-81
2022/04/08 09:23:20;;;;;;;1.05;0.30;;;;;;;17.58;25.66;98670.88;4477287;31;33684;-80
2022/04/08 09:25:49;;;;;;;1.15;0.32;;;;;;;17.53;25.65;98689.13;4476727;31;33593;-81
2022/04/08 09:28:18;;;;;;;2.62;0.80;;;;;;;17.57;26.00;98703.03;4482965;31;34093;-81
2022/04/08 09:30:52;;;;;;;3.03;0.75;;;;;;;17.83;24.88;98708.72;4478527;31;33501;-81
2022/04/08 09:33:22;;;;;;;0.88;0.28;;;;;;;18.14;25.27;98709.44;4479870;31;33809;-83
2022/04/08 09:35:54;;;;;;;1.70;0.20;;;;;;;18.52;25.27;98711.22;4479441;31;33930;-81
2022/04/08 09:38:27;;;;;;;1.92;0.17;;;;;;;18.61;25.04;98712.16;4491438;31;33835;-80
2022/04/08 09:41:00;;;;;;;0.30;0.17;;;;;;;18.34;23.69;98724.47;4504154;31;34314;-82
2022/04/08 09:43:36;;;;;;;4.00;0.30;;;;;;;18.22;24.12;98719.41;4478125;31;33669;-81
2022/04/08 09:46:18;;;;;;;2.83;0.70;;;;;;;18.67;23.31;98709.75;4489152;31;34453;-80
2022/04/08 09:48:47;;;;;;;11.40;0.80;;;;;;;18.73;23.00;98704.84;4490159;31;34197;-81
2022/04/08 09:51:23;;;;;;;1.73;0.52;;;;;;;18.87;23.54;98697.19;4490423;31;34076;-80
2022/04/08 09:53:56;;;;;;;4.12;0.62;;;;;;;18.84;23.56;98710.00;4488942;31;33506;-80
2022/04/08 09:56:25;;;;;;;6.28;0.62;;;;;;;18.74;23.90;98717.22;4486989;31;34223;-80
2022/04/08 09:59:08;;;;;;;4.55;0.40;;;;;;;18.98;23.74;98701.50;4490407;31;33887;-81
2022/04/08 10:01:37;;;;;;;4.37;0.95;;;;;;;19.31;24.36;98701.94;4463973;31;31548;-81
2022/04/08 10:04:07;;;;;;;13.30;0.77;;;;;;;19.44;24.08;98708.62;4487552;31;32223;-80
2022/04/08 10:06:35;;;;;;;10.18;0.52;;;;;;;19.41;24.28;98716.09;4491147;31;33875;-80
2022/04/08 10:09:05;;;;;;;2.08;0.50;;;;;;;19.32;25.29;98717.00;4477331;31;33856;-80
2022/04/08 10:11:47;;;;;;;2.45;0.75;;;;;;;19.42;23.06;98717.81;4488779;31;33157;-80
2022/04/08 10:14:45;;;;;;;1.75;0.50;;;;;;;19.81;23.25;98714.91;4489674;31;33889;-81
2022/04/08 10:17:14;;;;;;;0.20;0.20;;;;;;;19.88;23.72;98711.44;4489304;31;34661;-80
2022/04/08 10:19:42;;;;;;;4.85;0.70;;;;;;;19.75;22.61;98731.56;4486066;31;35219;-81
2022/04/08 10:22:18;;;;;;;1.08;0.20;;;;;;;19.63;23.87;98721.06;4477650;31;33309;-82
2022/04/08 10:24:56;;;;;;;1.45;0.45;;;;;;;20.14;24.40;98726.78;4479942;31;33879;-82
2022/04/08 10:27:33;;;;;;;1.55;0.62;;;;;;;20.54;22.81;98728.97;4479229;31;33950;-81
2022/04/08 10:30:13;;;;;;;3.70;0.37;;;;;;;20.10;22.11;98726.25;4489998;31;33308;-83
2022/04/08 10:32:43;;;;;;;3.45;0.32;;;;;;;20.42;22.04;98727.53;4478313;31;32519;-82
2022/04/08 10:35:17;;;;;;;4.85;0.75;;;;;;;20.25;23.97;98728.37;4476873;31;33790;-83
2022/04/08 10:38:06;;;;;;;0.80;0.20;;;;;;;20.96;21.60;98717.50;4476275;31;33450;-83
2022/04/08 10:40:35;;;;;;;1.85;0.37;;;;;;;20.69;21.68;98719.34;4471666;31;33082;-82
2022/04/08 10:43:05;;;;;;;1.33;0.60;;;;;;;20.79;22.16;98707.66;4478465;31;32494;-82
2022/04/08 10:45:33;;;;;;;2.35;0.40;;;;;;;20.65;21.96;98709.97;4476812;31;32688;-82
2022/04/08 10:48:22;;;;;;;1.23;0.43;;;;;;;20.92;21.62;98710.78;4479457;31;33867;-81
2022/04/08 10:50:50;;;;;;;4.32;0.95;;;;;;;20.84;22.43;98713.41;4476175;31;34518;-81
2022/04/08 10:53:24;;;;;;;0.82;0.30;;;;;;;20.89;20.88;98711.13;4476351;31;33393;-82
2022/04/08 10:55:56;;;;;;;0.35;0.20;;;;;;;20.68;22.32;98715.00;4482728;31;33978;-82
2022/04/08 10:58:32;;;;;;;0.60;0.30;;;;;;;20.86;22.12;98722.16;4472676;31;33465;-82
2022/04/08 11:01:12;;;;;;;2.25;0.40;;;;;;;21.04;21.26;98708.66;4485852;31;34122;-82
2022/04/08 11:03:56;;;;;;;0.22;0.20;;;;;;;20.36;22.14;98720.91;4492028;31;33589;-82
2022/04/08 11:06:28;;;;;;;2.00;0.30;;;;;;;20.09;22.67;98729.91;4490540;31;34397;-82
2022/04/08 11:08:57;;;;;;;;;;;;;;;19.74;23.67;98721.84;4480290;31;34790;-82
2022/04/08 11:11:29;;;;;;;0.45;0.30;;;;;;;20.30;22.97;98720.72;4490833;31;35025;-82
2022/04/08 11:13:57;;;;;;;1.65;0.60;;;;;;;20.40;24.20;98721.44;4474975;31;32349;-82
2022/04/08 11:16:31;;;;;;;5.05;0.65;;;;;;;20.14;23.69;98722.25;4489325;31;34247;-82
2022/04/08 11:18:59;;;;;;;2.03;0.30;;;;;;;20.30;22.88;98732.28;4486838;31;33504;-81
2022/04/08 11:21:28;;;;;;;0.75;0.40;;;;;;;20.29;23.24;98735.13;4476049;31;34644;-82
2022/04/08 11:24:01;;;;;;;3.15;0.70;;;;;;;20.21;24.18;98735.87;4473515;31;32365;-81
2022/04/08 11:26:31;;;;;;;4.10;0.85;;;;;;;20.29;23.22;98730.59;4475242;31;33080;-82
2022/04/08 11:29:15;;;;;;;2.05;0.45;;;;;;;20.38;24.97;98744.91;4489904;31;32471;-82
2022/04/08 11:31:47;;;;;;;1.02;0.50;;;;;;;20.20;23.81;98735.03;4478110;31;34636;-82
2022/04/08 11:34:15;;;;;;;2.30;0.35;;;;;;;20.17;24.97;98743.37;4488232;31;33253;-82
2022/04/08 11:36:44;;;;;;;1.92;0.65;;;;;;;20.46;25.84;98726.19;4489208;31;34039;-82
2022/04/08 11:39:21;;;;;;;1.42;0.37;;;;;;;20.46;25.30;98734.22;4491073;31;34657;-82
2022/04/08 11:41:55;;;;;;;3.28;0.52;;;;;;;20.30;25.19;98732.28;4489899;31;34040;-81
2022/04/08 11:44:23;;;;;;;3.17;0.50;;;;;;;20.45;24.56;98729.88;4489402;31;34282;-82
2022/04/08 11:46:51;;;;;;;4.32;0.52;;;;;;;20.64;24.81;98728.87;4490601;31;33622;-82